Time;durP1;ratioP1;P1;durP2;ratioP2;P2;SDS_P1;SDS_P2;PMS_P1;PMS_P2;Temp;Humidity;BMP_temperature;BMP_pressure;BME280_temperature;BME280_humidity;BME280_pressure;Samples;Min_cycle;Max_cycle;Signal;HPM_P1;HPM_P2
2021/12/01 00:02:55;;;;;;;2.10;1.90;;;4.70;99.90;;;;;;8348275;28;20199;-36
2021/12/01 00:06:57;;;;;;;1.77;1.67;;;4.60;99.90;;;;;;8345404;28;20330;-36
2021/12/01 00:10:59;;;;;;;2.03;1.90;;;4.50;99.90;;;;;;8351545;28;20294;-36
2021/12/01 00:15:01;;;;;;;2.45;2.10;;;4.50;99.90;;;;;;8349544;28;20263;-36
2021/12/01 00:19:05;;;;;;;1.70;1.60;;;4.50;99.90;;;;;;8349824;28;20204;-35
2021/12/01 00:23:08;;;;;;;2.83;2.05;;;4.40;99.90;;;;;;8351808;28;20207;-35
2021/12/01 00:27:10;;;;;;;2.42;2.22;;;4.40;99.90;;;;;;8352846;28;20280;-35
2021/12/01 00:31:12;;;;;;;2.63;2.35;;;4.50;99.90;;;;;;8354392;28;20245;-36
2021/12/01 00:35:16;;;;;;;2.17;2.08;;;4.50;99.90;;;;;;8355894;28;20666;-36
2021/12/01 00:39:18;;;;;;;2.60;2.08;;;4.50;99.90;;;;;;8360041;28;20209;-38
2021/12/01 00:43:23;;;;;;;2.45;2.22;;;4.50;99.90;;;;;;8359979;28;20238;-35
2021/12/01 00:47:31;;;;;;;2.30;2.00;;;4.60;99.90;;;;;;8358271;28;20219;-42
2021/12/01 00:51:34;;;;;;;2.65;2.35;;;4.60;99.90;;;;;;8360712;28;20206;-37
2021/12/01 00:55:36;;;;;;;3.45;2.97;;;4.60;99.90;;;;;;8354372;28;20206;-36
2021/12/01 00:59:38;;;;;;;4.40;2.53;;;4.50;99.90;;;;;;8358814;28;20214;-37
2021/12/01 01:03:40;;;;;;;2.95;2.75;;;4.50;99.90;;;;;;8348177;28;20307;-37
2021/12/01 01:07:43;;;;;;;2.92;2.60;;;4.50;99.90;;;;;;8348726;28;20254;-37
2021/12/01 01:20:24;;;;;;;3.47;3.17;;;4.40;99.90;;;;;;8356911;28;20257;-36
2021/12/01 01:24:29;;;;;;;4.50;3.40;;;4.40;99.90;;;;;;8354191;28;20568;-37
2021/12/01 01:28:31;;;;;;;4.25;3.42;;;4.40;99.90;;;;;;8353132;28;20321;-36
2021/12/01 01:32:34;;;;;;;3.40;3.10;;;4.40;99.90;;;;;;8356387;28;20291;-34
2021/12/01 01:36:36;;;;;;;3.42;3.13;;;4.40;99.90;;;;;;8355140;28;20203;-35
2021/12/01 01:40:39;;;;;;;3.35;3.08;;;4.40;99.90;;;;;;8350198;28;20199;-35
2021/12/01 01:44:41;;;;;;;3.88;3.38;;;4.40;99.90;;;;;;8353367;28;20195;-37
2021/12/01 01:48:49;;;;;;;3.55;3.03;;;4.40;99.90;;;;;;8349960;28;20247;-34
2021/12/01 01:52:51;;;;;;;4.60;3.45;;;4.40;99.90;;;;;;8355860;28;20238;-35
2021/12/01 01:56:54;;;;;;;3.83;3.40;;;4.40;99.90;;;;;;8350255;28;20203;-34
2021/12/01 02:01:06;;;;;;;3.80;3.40;;;4.40;99.90;;;;;;8350411;28;20239;-35
2021/12/01 02:05:08;;;;;;;4.05;3.58;;;4.40;99.90;;;;;;8353583;28;20208;-34
2021/12/01 02:09:10;;;;;;;3.70;3.28;;;4.40;99.90;;;;;;8351653;28;20230;-35
2021/12/01 02:13:13;;;;;;;4.05;3.10;;;4.40;99.90;;;;;;8350759;28;20214;-36
2021/12/01 02:17:15;;;;;;;3.75;3.45;;;4.40;99.90;;;;;;8346580;28;20242;-36
2021/12/01 02:21:26;;;;;;;3.30;3.00;;;4.40;99.90;;;;;;8345894;28;20199;-35
2021/12/01 02:25:28;;;;;;;3.20;2.90;;;4.40;99.90;;;;;;8348109;28;20214;-38
2021/12/01 02:29:30;;;;;;;4.47;3.03;;;4.50;99.90;;;;;;8353417;28;20227;-36
2021/12/01 02:33:33;;;;;;;3.05;2.85;;;4.50;99.90;;;;;;8351156;28;20203;-34
2021/12/01 02:37:37;;;;;;;3.60;3.30;;;4.50;99.90;;;;;;8351997;28;20207;-37
2021/12/01 02:41:39;;;;;;;3.00;2.80;;;4.50;99.90;;;;;;8346226;28;20542;-34
2021/12/01 02:45:42;;;;;;;4.20;2.85;;;4.50;99.90;;;;;;8350324;28;20227;-33
2021/12/01 02:49:43;;;;;;;4.43;2.95;;;4.60;99.90;;;;;;8352087;28;20207;-34
2021/12/01 02:53:47;;;;;;;3.85;3.00;;;4.60;99.90;;;;;;8347890;28;20199;-37
2021/12/01 02:57:51;;;;;;;3.30;3.00;;;4.60;99.90;;;;;;8353230;28;20195;-35
2021/12/01 03:01:54;;;;;;;4.97;3.03;;;4.60;99.90;;;;;;8347976;28;20306;-35
2021/12/01 03:05:58;;;;;;;3.42;3.13;;;4.70;99.90;;;;;;8350620;28;20249;-35
2021/12/01 03:10:01;;;;;;;2.78;2.58;;;4.70;99.90;;;;;;8352016;28;20300;-35
2021/12/01 03:14:08;;;;;;;3.45;3.15;;;4.70;99.90;;;;;;8346441;28;20234;-34
2021/12/01 03:18:11;;;;;;;5.05;3.15;;;4.70;99.90;;;;;;8350601;28;20295;-35
2021/12/01 03:22:13;;;;;;;3.38;2.92;;;4.80;99.90;;;;;;8348563;28;20544;-35
2021/12/01 03:26:17;;;;;;;5.00;3.40;;;4.80;99.90;;;;;;8348293;28;20273;-37
2021/12/01 03:30:18;;;;;;;3.42;3.00;;;4.80;99.90;;;;;;8347708;28;20223;-34
2021/12/01 03:34:23;;;;;;;3.63;2.90;;;4.90;99.90;;;;;;8345157;28;20241;-35
2021/12/01 03:38:27;;;;;;;3.67;3.10;;;4.80;99.90;;;;;;8347621;28;21006;-34
2021/12/01 03:42:31;;;;;;;3.10;2.80;;;4.90;99.90;;;;;;8347297;28;20203;-35
2021/12/01 03:46:33;;;;;;;3.13;2.83;;;4.90;99.90;;;;;;8352643;28;20310;-35
2021/12/01 03:50:36;;;;;;;3.13;2.83;;;5.00;99.90;;;;;;8348562;28;20206;-35
2021/12/01 03:54:37;;;;;;;3.20;2.80;;;5.10;99.90;;;;;;8351932;28;20192;-35
2021/12/01 03:58:41;;;;;;;5.18;3.25;;;5.10;99.90;;;;;;8355748;28;20206;-35
2021/12/01 04:02:43;;;;;;;2.33;2.13;;;5.20;99.90;;;;;;8354115;28;20206;-35
2021/12/01 04:06:45;;;;;;;2.47;2.28;;;5.20;99.90;;;;;;8354865;28;20229;-35
2021/12/01 04:10:47;;;;;;;3.03;2.63;;;5.20;99.90;;;;;;8353704;28;20211;-37
2021/12/01 04:14:50;;;;;;;2.40;2.20;;;5.20;99.90;;;;;;8356838;28;20258;-33
2021/12/01 04:18:52;;;;;;;3.00;2.15;;;5.20;99.90;;;;;;8358249;28;20305;-35
2021/12/01 04:22:54;;;;;;;3.97;2.45;;;5.10;99.90;;;;;;8356934;28;20215;-35
2021/12/01 04:26:57;;;;;;;2.65;2.45;;;5.10;99.90;;;;;;8350137;28;20239;-34
2021/12/01 04:31:00;;;;;;;3.88;3.08;;;5.10;99.90;;;;;;8354214;28;20209;-36
2021/12/01 04:35:02;;;;;;;2.88;2.10;;;5.10;99.90;;;;;;8357520;28;20285;-36
2021/12/01 04:39:06;;;;;;;2.30;2.10;;;5.00;99.90;;;;;;8355677;28;20631;-36
2021/12/01 04:43:08;;;;;;;2.10;1.90;;;5.00;99.90;;;;;;8359806;28;20266;-36
2021/12/01 04:47:14;;;;;;;2.30;2.10;;;4.90;99.90;;;;;;8356244;28;20234;-36
2021/12/01 04:51:17;;;;;;;2.47;2.28;;;4.90;99.90;;;;;;8358302;28;20261;-35
2021/12/01 04:55:19;;;;;;;2.17;2.03;;;4.90;99.90;;;;;;8353045;28;20222;-36
2021/12/01 04:59:22;;;;;;;2.85;2.08;;;4.80;99.90;;;;;;8351682;28;20198;-35
2021/12/01 05:03:25;;;;;;;2.13;2.03;;;4.90;99.90;;;;;;8350633;28;20215;-36
2021/12/01 05:07:27;;;;;;;3.00;2.10;;;4.90;99.90;;;;;;8352669;28;20223;-36
2021/12/01 05:11:29;;;;;;;3.08;2.17;;;4.90;99.90;;;;;;8354095;28;20215;-36
2021/12/01 05:15:31;;;;;;;2.17;2.00;;;4.90;99.90;;;;;;8352814;28;20254;-36
2021/12/01 05:19:34;;;;;;;2.75;2.20;;;4.90;99.90;;;;;;8348919;28;20196;-36
2021/12/01 05:23:36;;;;;;;2.35;1.95;;;4.90;99.90;;;;;;8349311;28;20218;-39
2021/12/01 05:27:38;;;;;;;2.30;2.00;;;5.00;99.90;;;;;;8357620;28;20650;-37
2021/12/01 05:31:40;;;;;;;2.72;1.73;;;5.00;99.90;;;;;;8361465;28;20196;-39
2021/12/01 05:35:46;;;;;;;3.85;1.75;;;5.00;99.90;;;;;;8356361;28;20211;-37
2021/12/01 05:39:48;;;;;;;1.88;1.45;;;5.10;99.90;;;;;;8361059;28;20218;-37
2021/12/01 05:43:50;;;;;;;1.65;1.45;;;5.20;99.90;;;;;;8363808;28;20199;-37
2021/12/01 05:47:52;;;;;;;1.08;1.08;;;5.30;99.90;;;;;;8359893;28;20759;-38
2021/12/01 05:51:55;;;;;;;2.50;1.60;;;5.50;99.90;;;;;;8356106;28;20219;-38
2021/12/01 05:55:57;;;;;;;1.33;1.20;;;5.60;99.90;;;;;;8362596;28;20234;-37
2021/12/01 06:00:00;;;;;;;1.25;1.15;;;5.80;99.90;;;;;;8359397;28;20670;-40
2021/12/01 06:04:02;;;;;;;2.25;1.20;;;6.00;99.90;;;;;;8362469;28;20321;-37
2021/12/01 06:08:06;;;;;;;1.30;1.02;;;6.00;99.90;;;;;;8354979;28;20226;-38
2021/12/01 06:12:08;;;;;;;0.93;0.90;;;6.10;99.90;;;;;;8354454;28;20207;-37
2021/12/01 06:16:10;;;;;;;0.82;0.82;;;6.20;99.90;;;;;;8362576;28;20203;-37
2021/12/01 06:20:14;;;;;;;1.23;1.13;;;6.20;99.90;;;;;;8357898;28;20687;-40
2021/12/01 06:24:17;;;;;;;1.00;1.00;;;6.30;99.90;;;;;;8361452;28;20215;-38
2021/12/01 06:28:19;;;;;;;1.10;0.95;;;6.20;99.90;;;;;;8355756;28;20226;-40
2021/12/01 06:32:22;;;;;;;1.08;1.00;;;6.20;99.90;;;;;;8361436;28;20204;-38
2021/12/01 06:36:24;;;;;;;0.80;0.80;;;6.10;99.90;;;;;;8358718;28;20541;-39
2021/12/01 06:40:28;;;;;;;0.90;0.90;;;6.00;99.90;;;;;;8352097;28;20218;-37
2021/12/01 06:44:30;;;;;;;0.90;0.90;;;5.90;99.90;;;;;;8356776;28;20199;-37
2021/12/01 06:48:32;;;;;;;1.17;1.10;;;5.90;99.90;;;;;;8349328;28;20219;-37
2021/12/01 06:52:34;;;;;;;1.42;1.15;;;5.90;99.90;;;;;;8353602;28;20214;-37
2021/12/01 06:56:38;;;;;;;1.30;1.20;;;5.80;99.90;;;;;;8348620;28;20211;-36
2021/12/01 07:00:40;;;;;;;2.30;1.00;;;5.80;99.90;;;;;;8349430;28;20207;-38
2021/12/01 07:04:41;;;;;;;1.05;1.02;;;5.80;99.90;;;;;;8354635;28;20207;-38
2021/12/01 07:08:43;;;;;;;1.08;1.08;;;5.90;99.90;;;;;;8346609;28;20247;-37
2021/12/01 07:12:47;;;;;;;0.80;0.80;;;6.00;99.90;;;;;;8343224;28;20218;-36
2021/12/01 07:16:49;;;;;;;2.38;0.98;;;6.00;99.90;;;;;;8346380;28;20203;-37
2021/12/01 07:20:51;;;;;;;0.90;0.90;;;6.00;99.90;;;;;;8353981;28;20209;-37
2021/12/01 07:24:53;;;;;;;0.80;0.80;;;6.00;99.90;;;;;;8349312;28;20204;-37
2021/12/01 07:28:56;;;;;;;1.15;0.85;;;6.10;99.90;;;;;;8353404;28;20247;-36
2021/12/01 07:32:58;;;;;;;1.08;1.00;;;6.00;99.90;;;;;;8365357;28;20636;-37
2021/12/01 07:37:00;;;;;;;0.93;0.93;;;6.00;99.90;;;;;;8359563;28;20207;-37
2021/12/01 07:41:02;;;;;;;2.50;0.95;;;6.00;99.90;;;;;;8364284;28;20237;-36
2021/12/01 07:45:06;;;;;;;1.17;0.90;;;6.00;99.90;;;;;;8361620;28;20210;-37
2021/12/01 07:49:08;;;;;;;1.55;1.20;;;6.00;99.90;;;;;;8358357;28;20254;-36
2021/12/01 07:53:13;;;;;;;16.98;8.93;;;6.00;99.90;;;;;;8355980;28;20203;-37
2021/12/01 07:57:15;;;;;;;4.40;3.17;;;6.00;99.90;;;;;;8354640;28;20204;-37
2021/12/01 08:01:18;;;;;;;1.30;1.20;;;5.90;99.90;;;;;;8364497;28;20207;-37
2021/12/01 08:05:20;;;;;;;1.40;1.30;;;5.90;99.90;;;;;;8361313;28;20230;-37
2021/12/01 08:09:23;;;;;;;1.90;1.33;;;6.00;99.90;;;;;;8361817;28;20227;-37
2021/12/01 08:13:25;;;;;;;0.80;0.80;;;6.00;99.90;;;;;;8362986;28;20203;-38
2021/12/01 08:17:28;;;;;;;0.88;0.88;;;6.00;99.90;;;;;;8365466;28;20577;-37
2021/12/01 08:21:31;;;;;;;1.08;1.08;;;6.00;99.90;;;;;;8360680;28;20207;-37
2021/12/01 08:25:34;;;;;;;1.80;0.90;;;6.10;99.90;;;;;;8363915;28;20207;-37
2021/12/01 08:29:36;;;;;;;1.08;0.98;;;6.10;99.90;;;;;;8361346;28;20226;-35
2021/12/01 08:33:39;;;;;;;1.00;1.00;;;6.20;99.90;;;;;;8360963;28;20207;-36
2021/12/01 08:37:42;;;;;;;0.98;0.93;;;6.20;99.90;;;;;;8348214;28;20238;-36
2021/12/01 08:41:44;;;;;;;1.63;1.00;;;6.20;99.90;;;;;;8345301;28;20223;-37
2021/12/01 08:45:46;;;;;;;2.00;1.00;;;6.20;99.90;;;;;;8361008;28;20218;-35
2021/12/01 08:49:49;;;;;;;1.25;1.08;;;6.20;99.90;;;;;;8356623;28;20275;-35
2021/12/01 08:53:51;;;;;;;1.73;0.90;;;6.20;99.90;;;;;;8351415;28;20211;-35
2021/12/01 08:57:53;;;;;;;4.30;3.08;;;6.20;99.90;;;;;;8360970;28;20214;-36
2021/12/01 09:01:56;;;;;;;1.52;1.42;;;6.30;99.90;;;;;;8347192;28;20203;-35
2021/12/01 09:05:59;;;;;;;0.98;0.98;;;6.40;99.90;;;;;;8351292;28;20199;-36
2021/12/01 09:10:03;;;;;;;1.15;1.00;;;6.40;99.90;;;;;;8359228;28;20314;-36
2021/12/01 09:14:05;;;;;;;0.80;0.80;;;6.50;99.90;;;;;;8360254;28;20211;-39
2021/12/01 09:18:07;;;;;;;1.00;1.00;;;6.60;99.90;;;;;;8357484;28;20211;-36
2021/12/01 09:22:12;;;;;;;1.42;1.17;;;6.70;99.90;;;;;;8358026;28;20602;-36
2021/12/01 09:26:14;;;;;;;2.10;1.08;;;6.70;99.90;;;;;;8354918;28;20199;-36
2021/12/01 09:30:18;;;;;;;0.90;0.90;;;6.80;99.90;;;;;;8346425;28;20247;-36
2021/12/01 09:34:20;;;;;;;1.15;0.90;;;6.90;99.90;;;;;;8359637;28;20203;-39
2021/12/01 09:38:23;;;;;;;1.88;1.38;;;6.90;99.90;;;;;;8356556;28;20196;-38
2021/12/01 09:42:26;;;;;;;1.17;0.88;;;7.00;99.90;;;;;;8360505;28;20207;-38
2021/12/01 09:46:30;;;;;;;1.00;0.90;;;7.00;99.90;;;;;;8361461;28;20207;-37
2021/12/01 09:50:32;;;;;;;1.00;0.90;;;7.10;99.90;;;;;;8352746;28;20215;-39
2021/12/01 09:54:36;;;;;;;0.68;0.68;;;7.10;99.90;;;;;;8356495;28;20199;-36
2021/12/01 09:58:38;;;;;;;1.73;0.60;;;7.30;99.90;;;;;;8357492;28;20206;-37
2021/12/01 10:02:40;;;;;;;1.77;0.77;;;7.40;99.90;;;;;;8362419;28;20534;-36
2021/12/01 10:06:42;;;;;;;0.60;0.60;;;7.70;99.90;;;;;;8363691;28;20222;-36
2021/12/01 10:10:45;;;;;;;1.38;0.90;;;8.10;99.90;;;;;;8362782;28;20219;-37
2021/12/01 10:14:49;;;;;;;0.68;0.68;;;8.40;99.90;;;;;;8352565;28;20246;-36
2021/12/01 10:18:53;;;;;;;1.17;0.95;;;8.60;99.90;;;;;;8360170;28;20260;-36
2021/12/01 10:23:10;;;;;;;0.52;0.52;;;8.60;99.90;;;;;;8361821;28;20320;-38
2021/12/01 10:27:14;;;;;;;0.95;0.70;;;8.40;99.90;;;;;;8362721;28;20317;-36
2021/12/01 10:31:16;;;;;;;0.50;0.50;;;8.30;99.90;;;;;;8358869;28;20277;-39
2021/12/01 10:35:33;;;;;;;0.55;0.55;;;8.40;99.90;;;;;;8359301;28;20195;-37
2021/12/01 10:39:35;;;;;;;1.73;1.00;;;8.40;99.90;;;;;;8350730;28;20640;-36
2021/12/01 10:43:46;;;;;;;1.20;0.90;;;8.40;99.90;;;;;;8362179;28;20384;-37
2021/12/01 10:47:48;;;;;;;0.63;0.63;;;8.40;99.90;;;;;;8355564;28;20199;-36
2021/12/01 10:51:50;;;;;;;1.27;0.63;;;8.40;99.90;;;;;;8360105;28;20214;-37
2021/12/01 10:55:54;;;;;;;0.75;0.60;;;8.50;99.90;;;;;;8354879;28;20207;-40
2021/12/01 10:59:58;;;;;;;0.73;0.70;;;8.60;99.90;;;;;;8357911;28;20199;-39
2021/12/01 11:04:00;;;;;;;0.50;0.50;;;8.60;99.90;;;;;;8356172;28;20203;-37
2021/12/01 11:08:15;;;;;;;0.60;0.60;;;8.60;99.90;;;;;;8355754;28;20222;-37
2021/12/01 11:12:29;;;;;;;0.50;0.50;;;8.60;99.90;;;;;;8357578;28;20218;-41
2021/12/01 11:16:37;;;;;;;0.95;0.63;;;8.60;99.90;;;;;;8355532;28;20257;-36
2021/12/01 11:20:42;;;;;;;0.50;0.50;;;8.60;99.90;;;;;;8358771;28;20266;-43
2021/12/01 11:24:44;;;;;;;0.63;0.63;;;8.50;99.90;;;;;;8359131;28;20218;-40
2021/12/01 11:28:48;;;;;;;0.55;0.43;;;8.50;99.90;;;;;;8361533;28;20226;-38
2021/12/01 11:32:51;;;;;;;0.70;0.70;;;8.40;99.90;;;;;;8356881;28;20226;-40
2021/12/01 11:36:53;;;;;;;1.42;0.63;;;8.30;99.90;;;;;;8353935;28;20213;-40
2021/12/01 11:40:57;;;;;;;1.10;0.60;;;8.30;99.90;;;;;;8354563;28;20953;-37
2021/12/01 11:45:00;;;;;;;0.80;0.80;;;8.40;99.90;;;;;;8356238;28;20203;-37
2021/12/01 11:49:08;;;;;;;0.47;0.47;;;8.50;99.90;;;;;;8359267;28;20226;-40
2021/12/01 11:53:21;;;;;;;0.50;0.50;;;8.50;99.90;;;;;;8357731;28;20505;-37
2021/12/01 11:57:23;;;;;;;0.70;0.70;;;8.60;99.90;;;;;;8358946;28;20222;-36
2021/12/01 12:02:00;;;;;;;0.75;0.75;;;8.50;99.90;;;;;;8352387;28;20210;-37
2021/12/01 12:06:23;;;;;;;0.75;0.75;;;8.40;99.90;;;;;;8355708;28;20208;-38
2021/12/01 12:10:34;;;;;;;0.60;0.60;;;8.40;99.90;;;;;;8355334;28;20239;-36
2021/12/01 12:14:37;;;;;;;0.45;0.45;;;8.40;99.90;;;;;;8358307;28;20200;-39
2021/12/01 12:18:51;;;;;;;0.75;0.75;;;8.40;99.90;;;;;;8362205;28;20207;-36
2021/12/01 12:23:01;;;;;;;0.68;0.65;;;8.30;99.90;;;;;;8361318;28;20207;-36
2021/12/01 12:27:04;;;;;;;0.60;0.60;;;8.40;99.90;;;;;;8359136;28;20465;-36
2021/12/01 12:31:25;;;;;;;1.85;0.63;;;8.50;99.90;;;;;;8354023;28;20264;-38
2021/12/01 12:35:43;;;;;;;0.50;0.50;;;8.60;99.90;;;;;;8361751;28;20215;-36
2021/12/01 12:39:47;;;;;;;0.60;0.60;;;8.60;99.90;;;;;;8354711;28;20207;-39
2021/12/01 12:43:49;;;;;;;0.60;0.60;;;8.60;99.90;;;;;;8361597;28;20293;-37
2021/12/01 12:47:52;;;;;;;0.63;0.63;;;8.60;99.90;;;;;;8360685;28;20203;-37
2021/12/01 12:51:54;;;;;;;0.68;0.68;;;8.60;99.90;;;;;;8362092;28;20281;-39
2021/12/01 12:55:57;;;;;;;0.70;0.70;;;8.60;99.90;;;;;;8359464;28;20226;-39
2021/12/01 13:00:23;;;;;;;0.55;0.55;;;8.50;99.90;;;;;;8353074;28;20448;-38
2021/12/01 13:04:58;;;;;;;0.70;0.70;;;8.50;99.90;;;;;;8353488;28;20200;-40
2021/12/01 13:09:16;;;;;;;0.77;0.68;;;8.50;99.90;;;;;;8362034;28;20289;-39
2021/12/01 13:13:28;;;;;;;1.73;0.70;;;8.50;99.90;;;;;;8357765;28;20218;-38
2021/12/01 13:17:30;;;;;;;1.30;0.80;;;8.50;99.90;;;;;;8359478;28;20203;-37
2021/12/01 13:21:36;;;;;;;0.63;0.63;;;8.50;99.90;;;;;;8358920;28;20195;-37
2021/12/01 13:25:41;;;;;;;0.60;0.60;;;8.50;99.90;;;;;;8362311;28;20207;-40
2021/12/01 13:29:44;;;;;;;0.70;0.70;;;8.40;99.90;;;;;;8357926;28;20267;-38
2021/12/01 13:34:05;;;;;;;0.80;0.80;;;8.40;99.90;;;;;;8359590;28;20233;-42
2021/12/01 13:38:08;;;;;;;0.70;0.70;;;8.40;99.90;;;;;;8351369;28;20211;-40
2021/12/01 13:42:16;;;;;;;0.80;0.80;;;8.40;99.90;;;;;;8359175;28;20199;-39
2021/12/01 13:46:20;;;;;;;0.60;0.60;;;8.40;99.90;;;;;;8361342;28;20199;-38
2021/12/01 13:50:22;;;;;;;0.80;0.80;;;8.40;99.90;;;;;;8345338;28;20294;-42
2021/12/01 13:54:25;;;;;;;0.70;0.70;;;8.40;99.90;;;;;;8357460;28;20195;-39
2021/12/01 13:58:27;;;;;;;0.55;0.55;;;8.40;99.90;;;;;;8359867;28;20191;-38
2021/12/01 14:02:31;;;;;;;0.80;0.70;;;8.40;99.90;;;;;;8347308;28;20203;-38
2021/12/01 14:06:36;;;;;;;0.80;0.80;;;8.40;99.90;;;;;;8349322;28;20218;-37
2021/12/01 14:10:57;;;;;;;0.73;0.73;;;8.30;99.90;;;;;;8354526;28;20231;-40
2021/12/01 14:14:59;;;;;;;1.92;0.60;;;8.30;99.90;;;;;;8355525;28;20203;-38
2021/12/01 14:19:04;;;;;;;1.90;0.50;;;8.30;99.90;;;;;;8355498;28;20659;-39
2021/12/01 14:23:06;;;;;;;1.75;1.00;;;8.30;99.90;;;;;;8354724;28;20203;-40
2021/12/01 14:27:09;;;;;;;1.10;1.00;;;8.30;99.90;;;;;;8347936;28;20212;-39
2021/12/01 14:31:11;;;;;;;2.53;1.75;;;8.30;99.90;;;;;;8353182;28;20222;-41
2021/12/01 14:35:15;;;;;;;1.13;1.13;;;8.30;99.90;;;;;;8345216;28;20199;-38
2021/12/01 14:39:18;;;;;;;0.85;0.85;;;8.30;99.90;;;;;;8352240;28;20199;-38
2021/12/01 14:43:27;;;;;;;0.95;0.95;;;8.30;99.90;;;;;;8348068;28;20207;-38
2021/12/01 14:47:29;;;;;;;3.03;0.93;;;8.30;99.90;;;;;;8350351;28;20217;-38
2021/12/01 14:51:41;;;;;;;1.45;0.80;;;8.30;99.90;;;;;;8349899;28;20302;-39
2021/12/01 14:55:45;;;;;;;0.90;0.90;;;8.30;99.90;;;;;;8362996;28;20203;-39
2021/12/01 14:59:51;;;;;;;0.70;0.70;;;8.30;99.90;;;;;;8361976;28;20199;-38
2021/12/01 15:04:07;;;;;;;1.13;1.00;;;8.30;99.90;;;;;;8354749;28;20199;-37
2021/12/01 15:08:13;;;;;;;1.45;1.05;;;8.30;99.90;;;;;;8358518;28;20323;-39
2021/12/01 15:12:26;;;;;;;0.60;0.60;;;8.30;99.90;;;;;;8349691;28;20315;-38
2021/12/01 15:16:32;;;;;;;0.70;0.70;;;8.30;99.90;;;;;;8344797;28;20215;-39
2021/12/01 15:20:35;;;;;;;1.20;1.10;;;8.40;99.90;;;;;;8349307;28;20260;-38
2021/12/01 15:24:39;;;;;;;0.55;0.55;;;8.40;99.90;;;;;;8352874;28;20233;-38
2021/12/01 15:28:43;;;;;;;0.60;0.60;;;8.40;99.90;;;;;;8349620;28;20222;-39
2021/12/01 15:32:45;;;;;;;0.50;0.50;;;8.40;99.90;;;;;;8357952;28;20251;-37
2021/12/01 15:36:47;;;;;;;0.70;0.65;;;8.50;99.90;;;;;;8351153;28;20215;-37
2021/12/01 15:40:51;;;;;;;0.50;0.50;;;8.60;99.90;;;;;;8359244;28;20207;-37
2021/12/01 15:44:53;;;;;;;0.60;0.60;;;8.70;99.90;;;;;;8360872;28;20214;-39
2021/12/01 15:48:55;;;;;;;0.45;0.45;;;8.70;99.90;;;;;;8364719;28;20207;-37
2021/12/01 15:52:59;;;;;;;0.63;0.63;;;8.70;99.90;;;;;;8368638;28;20253;-38
2021/12/01 15:57:02;;;;;;;1.05;0.70;;;8.60;99.90;;;;;;8370287;28;20195;-37
2021/12/01 16:01:05;;;;;;;0.60;0.60;;;8.70;99.90;;;;;;8366309;28;20203;-37
2021/12/01 16:05:09;;;;;;;0.60;0.60;;;8.70;99.90;;;;;;8365065;28;20199;-39
2021/12/01 16:09:11;;;;;;;0.63;0.63;;;8.70;99.90;;;;;;8364077;28;20284;-38
2021/12/01 16:13:14;;;;;;;0.60;0.60;;;8.70;99.90;;;;;;8369121;28;20211;-38
2021/12/01 16:17:16;;;;;;;0.65;0.52;;;8.70;99.90;;;;;;8367464;28;20670;-38
2021/12/01 16:21:18;;;;;;;0.93;0.60;;;8.70;99.90;;;;;;8366834;28;20200;-38
2021/12/01 16:25:21;;;;;;;0.60;0.60;;;8.60;99.90;;;;;;8369021;28;20211;-38
2021/12/01 16:29:25;;;;;;;0.50;0.50;;;8.50;99.90;;;;;;8370208;28;20234;-37
2021/12/01 16:33:27;;;;;;;0.80;0.80;;;8.40;99.90;;;;;;8360613;28;20234;-37
2021/12/01 16:37:29;;;;;;;0.90;0.90;;;8.40;99.90;;;;;;8362640;28;20214;-38
2021/12/01 16:41:31;;;;;;;1.20;1.10;;;8.30;99.90;;;;;;8365595;28;20202;-38
2021/12/01 16:45:35;;;;;;;0.70;0.70;;;8.30;99.90;;;;;;8364540;28;20216;-37
2021/12/01 16:49:37;;;;;;;0.80;0.80;;;8.30;99.90;;;;;;8360186;28;20465;-38
2021/12/01 16:53:39;;;;;;;0.75;0.75;;;8.30;99.90;;;;;;8361257;28;20257;-38
2021/12/01 16:57:41;;;;;;;0.75;0.75;;;8.30;99.90;;;;;;8364076;28;20203;-38
2021/12/01 17:01:48;;;;;;;2.90;1.05;;;8.30;99.90;;;;;;8364703;28;20218;-38
2021/12/01 17:05:53;;;;;;;1.42;1.13;;;8.10;99.90;;;;;;8362312;28;20261;-39
2021/12/01 17:09:55;;;;;;;0.82;0.82;;;7.80;99.90;;;;;;8360822;28;20326;-38
2021/12/01 17:13:57;;;;;;;0.70;0.70;;;7.70;99.90;;;;;;8354313;28;20249;-37
2021/12/01 17:18:01;;;;;;;1.27;1.17;;;7.50;99.90;;;;;;8362329;28;20218;-38
2021/12/01 17:22:04;;;;;;;1.30;1.20;;;7.50;99.90;;;;;;8360214;28;20286;-39
2021/12/01 17:26:06;;;;;;;1.55;0.90;;;7.40;99.90;;;;;;8356881;28;20204;-37
2021/12/01 17:30:14;;;;;;;1.00;1.00;;;7.30;99.90;;;;;;8361483;28;20234;-38
2021/12/01 17:34:18;;;;;;;1.10;0.93;;;7.20;99.90;;;;;;8363804;28;20206;-40
2021/12/01 17:38:20;;;;;;;1.75;1.33;;;7.20;99.90;;;;;;8365947;28;20203;-38
2021/12/01 17:42:24;;;;;;;1.88;1.67;;;7.10;99.90;;;;;;8356912;28;20218;-39
2021/12/01 17:46:26;;;;;;;2.67;1.85;;;7.00;99.90;;;;;;8359629;28;20271;-38
2021/12/01 17:50:29;;;;;;;1.92;1.70;;;6.80;99.90;;;;;;8360783;28;20356;-39
2021/12/01 17:54:32;;;;;;;2.03;1.92;;;6.90;99.90;;;;;;8364014;28;20410;-38
2021/12/01 17:58:34;;;;;;;2.25;1.38;;;6.90;99.90;;;;;;8360777;28;20207;-38
2021/12/01 18:02:36;;;;;;;1.80;1.48;;;6.90;99.90;;;;;;8358690;28;20200;-38
2021/12/01 18:06:39;;;;;;;2.22;1.40;;;6.90;99.90;;;;;;8357684;28;20212;-39
2021/12/01 18:10:44;;;;;;;1.50;1.40;;;6.80;99.90;;;;;;8356732;28;20226;-38
2021/12/01 18:14:45;;;;;;;1.90;1.80;;;6.80;99.90;;;;;;8361247;28;20208;-40
2021/12/01 18:18:48;;;;;;;1.92;1.50;;;6.80;99.90;;;;;;8361062;28;20199;-37
2021/12/01 18:22:51;;;;;;;3.05;1.60;;;6.70;99.90;;;;;;8360685;28;20234;-39
2021/12/01 18:26:53;;;;;;;1.23;1.13;;;6.70;99.90;;;;;;8352564;28;21947;-38
2021/12/01 18:30:55;;;;;;;1.42;1.33;;;6.60;99.90;;;;;;8344987;28;20234;-39
2021/12/01 18:34:57;;;;;;;2.15;1.15;;;6.80;99.90;;;;;;8354905;28;20214;-40
2021/12/01 18:39:01;;;;;;;4.03;1.33;;;6.90;99.90;;;;;;8355629;28;20203;-40
2021/12/01 18:43:03;;;;;;;1.42;1.33;;;6.90;99.90;;;;;;8351775;28;20199;-40
2021/12/01 18:47:05;;;;;;;1.50;1.30;;;6.80;99.90;;;;;;8353334;28;20215;-41
2021/12/01 18:51:09;;;;;;;1.33;1.17;;;6.80;99.90;;;;;;8352415;28;20596;-39
2021/12/01 18:55:15;;;;;;;1.35;0.90;;;6.70;99.90;;;;;;8354505;28;20214;-40
2021/12/01 18:59:17;;;;;;;1.08;1.00;;;6.60;99.90;;;;;;8355296;28;20858;-39
2021/12/01 19:03:18;;;;;;;1.00;1.00;;;6.70;99.90;;;;;;8356891;28;20278;-38
2021/12/01 19:07:20;;;;;;;1.35;1.23;;;6.70;99.90;;;;;;8355760;28;20218;-39
2021/12/01 19:11:24;;;;;;;1.50;1.40;;;6.80;99.90;;;;;;8358235;28;20301;-41
2021/12/01 19:15:26;;;;;;;1.35;1.25;;;6.80;99.90;;;;;;8353181;28;20257;-38
2021/12/01 19:19:28;;;;;;;1.33;1.23;;;6.90;99.90;;;;;;8347023;28;20238;-38
2021/12/01 19:23:32;;;;;;;1.20;1.00;;;7.00;99.90;;;;;;8355274;28;20207;-38
2021/12/01 19:27:35;;;;;;;2.35;1.65;;;7.10;99.90;;;;;;8350544;28;20227;-38
2021/12/01 19:31:37;;;;;;;1.27;1.10;;;7.20;99.90;;;;;;8345017;28;20238;-40
2021/12/01 19:35:39;;;;;;;0.70;0.70;;;7.30;99.90;;;;;;8355447;28;20214;-38
2021/12/01 19:39:42;;;;;;;1.10;1.00;;;7.30;99.90;;;;;;8346195;28;20195;-38
2021/12/01 19:43:45;;;;;;;0.70;0.70;;;7.30;99.90;;;;;;8355958;28;20222;-44
2021/12/01 19:47:48;;;;;;;0.98;0.85;;;7.20;99.90;;;;;;8348714;28;20211;-40
2021/12/01 19:51:51;;;;;;;0.80;0.80;;;7.20;99.90;;;;;;8352584;28;20245;-38
2021/12/01 19:55:54;;;;;;;0.68;0.68;;;7.20;99.90;;;;;;8353893;28;20203;-38
2021/12/01 19:59:57;;;;;;;2.42;0.90;;;7.20;99.90;;;;;;8358328;28;20207;-38
2021/12/01 20:03:59;;;;;;;0.68;0.68;;;7.20;99.90;;;;;;8354535;28;20207;-38
2021/12/01 20:08:02;;;;;;;0.80;0.80;;;7.10;99.90;;;;;;8355344;28;20207;-37
2021/12/01 20:12:04;;;;;;;1.02;0.95;;;7.10;99.90;;;;;;8351763;28;20227;-39
2021/12/01 20:16:10;;;;;;;0.70;0.70;;;7.10;99.90;;;;;;8357409;28;20238;-38
2021/12/01 20:20:13;;;;;;;0.73;0.73;;;7.10;99.90;;;;;;8351192;28;20202;-39
2021/12/01 20:24:15;;;;;;;1.15;1.00;;;7.10;99.90;;;;;;8356964;28;20215;-39
2021/12/01 20:28:17;;;;;;;1.42;0.77;;;7.00;99.90;;;;;;8354581;28;20238;-38
2021/12/01 20:32:20;;;;;;;0.85;0.85;;;6.90;99.90;;;;;;8360855;28;20238;-38
2021/12/01 20:36:24;;;;;;;0.75;0.75;;;6.80;99.90;;;;;;8358995;28;20207;-38
2021/12/01 20:40:29;;;;;;;1.65;1.33;;;6.70;99.90;;;;;;8361880;28;20199;-38
2021/12/01 20:44:33;;;;;;;1.58;1.48;;;6.60;99.90;;;;;;8362716;28;20238;-38
2021/12/01 20:53:07;;;;;;;2.17;1.80;;;6.60;99.90;;;;;;8363261;28;20681;-37
2021/12/01 21:01:29;;;;;;;1.55;1.45;;;6.60;99.90;;;;;;8365967;28;20188;-38
2021/12/01 21:05:33;;;;;;;1.83;1.67;;;6.60;99.90;;;;;;8367723;28;20711;-39
2021/12/01 21:09:41;;;;;;;4.05;2.33;;;6.70;99.90;;;;;;8368392;28;20268;-37
2021/12/01 21:13:44;;;;;;;1.63;1.52;;;6.70;99.90;;;;;;8366438;28;20683;-37
2021/12/01 21:17:46;;;;;;;1.92;1.35;;;6.70;99.90;;;;;;8360979;28;20203;-37
2021/12/01 21:21:53;;;;;;;0.90;0.90;;;6.60;99.90;;;;;;8359465;28;20284;-39
2021/12/01 21:26:00;;;;;;;1.35;1.25;;;6.60;99.90;;;;;;8363967;28;20215;-37
2021/12/01 21:30:05;;;;;;;0.88;0.88;;;6.50;99.90;;;;;;8363748;28;20219;-36
2021/12/01 21:34:07;;;;;;;0.85;0.70;;;6.50;99.90;;;;;;8356904;28;20230;-37
2021/12/01 21:38:11;;;;;;;1.25;1.15;;;6.40;99.90;;;;;;8361172;28;20584;-38
2021/12/01 21:42:13;;;;;;;1.30;1.20;;;6.30;99.90;;;;;;8360524;28;20317;-38
2021/12/01 21:46:16;;;;;;;1.45;1.20;;;6.30;99.90;;;;;;8360783;28;20482;-37